createdAt,value
2019-04-28T00:00:14.889Z,94.27
2019-04-28T00:01:15.029Z,94.17
2019-04-28T00:02:14.941Z,93.60
2019-04-28T00:03:14.808Z,93.89
2019-04-28T00:04:14.948Z,93.60
2019-04-28T00:05:14.738Z,93.51
2019-04-28T00:06:14.869Z,93.70
2019-04-28T00:07:14.700Z,93.89
2019-04-28T00:08:14.779Z,93.41
2019-04-28T00:09:14.638Z,93.89
2019-04-28T00:10:14.788Z,93.98
2019-04-28T00:11:14.578Z,94.17
2019-04-28T00:12:14.702Z,94.17
2019-04-28T00:13:14.532Z,93.98
2019-04-28T00:14:14.498Z,94.17
2019-04-28T00:15:14.623Z,93.70
2019-04-28T00:16:14.459Z,94.08
2019-04-28T00:17:14.639Z,94.17
2019-04-28T00:18:14.388Z,93.60
2019-04-28T00:19:14.549Z,93.89
2019-04-28T00:20:14.338Z,94.37
2019-04-28T00:21:14.458Z,93.70
2019-04-28T00:22:14.278Z,94.08
2019-04-28T00:23:14.368Z,94.37
2019-04-28T00:24:14.228Z,94.27
2019-04-28T00:25:14.290Z,94.17
2019-04-28T00:26:14.166Z,94.46
2019-04-28T00:27:14.201Z,95.22
2019-04-28T00:28:14.107Z,94.74
2019-04-28T00:29:14.095Z,94.37
2019-04-28T00:30:14.109Z,94.27
2019-04-28T00:31:14.031Z,94.46
2019-04-28T00:32:14.135Z,93.89
2019-04-28T00:33:13.980Z,94.65
2019-04-28T00:34:13.959Z,94.93
2019-04-28T00:35:13.936Z,94.65
2019-04-28T00:36:13.948Z,95.03
2019-04-28T00:37:13.882Z,94.37
2019-04-28T00:38:13.967Z,93.89
2019-04-28T00:39:13.818Z,95.03
2019-04-28T00:40:13.877Z,94.65
2019-04-28T00:41:13.769Z,95.12
2019-04-28T00:42:13.788Z,94.84
2019-04-28T00:43:13.707Z,94.65
2019-04-28T00:44:13.798Z,94.56
2019-04-28T00:45:13.706Z,94.93
2019-04-28T00:46:13.616Z,95.22
2019-04-28T00:47:13.729Z,95.22
2019-04-28T00:48:13.583Z,95.32
2019-04-28T00:49:13.629Z,95.22
2019-04-28T00:50:13.666Z,95.12
2019-04-28T00:51:13.488Z,95.60
2019-04-28T00:52:13.549Z,95.89
2019-04-28T00:53:13.428Z,95.70
2019-04-28T00:54:13.470Z,95.89
2019-04-28T00:55:13.383Z,95.41
2019-04-28T00:56:13.358Z,96.08
2019-04-28T00:57:13.379Z,95.70
2019-04-28T00:58:13.308Z,96.08
2019-04-28T00:59:13.409Z,95.89
2019-04-28T01:00:13.236Z,96.27
2019-04-28T01:01:13.217Z,95.79
2019-04-28T01:02:13.201Z,96.36
2019-04-28T01:03:13.218Z,96.94
2019-04-28T01:04:13.127Z,96.75
2019-04-28T01:05:13.235Z,97.22
2019-04-28T01:06:14.112Z,97.41
2019-04-28T01:07:13.060Z,97.60
2019-04-28T01:08:13.159Z,97.51
2019-04-28T01:09:13.003Z,98.08
2019-04-28T01:10:13.068Z,97.89
2019-04-28T01:11:12.938Z,98.18
2019-04-28T01:12:12.976Z,98.36
2019-04-28T01:13:12.893Z,97.93
2019-04-28T01:14:12.986Z,97.93
2019-04-28T01:15:12.832Z,97.93
2019-04-28T01:16:12.907Z,97.99
2019-04-28T01:17:12.767Z,97.93
2019-04-28T01:18:12.816Z,98.22
2019-04-28T01:19:12.717Z,98.03
2019-04-28T01:20:12.826Z,97.74
2019-04-28T01:21:12.657Z,98.32
2019-04-28T01:22:12.649Z,98.03
2019-04-28T01:23:12.607Z,97.84
2019-04-28T01:24:12.656Z,98.60
2019-04-28T01:25:12.556Z,98.98
2019-04-28T01:26:12.665Z,98.03
2019-04-28T01:27:12.499Z,98.69
2019-04-28T01:28:12.471Z,98.98
2019-04-28T01:29:12.589Z,98.79
2019-04-28T01:30:12.409Z,98.98
2019-04-28T01:31:12.497Z,98.98
2019-04-28T01:32:12.362Z,98.98
2019-04-28T01:33:12.338Z,99.27
2019-04-28T01:34:12.308Z,98.88
2019-04-28T01:35:12.431Z,98.79
2019-04-28T01:36:12.248Z,99.27
2019-04-28T01:37:12.339Z,99.74
2019-04-28T01:38:12.338Z,99.84
2019-04-28T01:39:12.246Z,99.55
2019-04-28T01:40:12.148Z,99.99
2019-04-28T01:41:12.267Z,99.93
2019-04-28T01:42:12.099Z,99.55
2019-04-28T01:43:12.184Z,99.65
2019-04-28T01:44:12.025Z,99.55
2019-04-28T01:45:12.186Z,99.93
2019-04-28T01:46:11.989Z,99.46
2019-04-28T01:47:12.108Z,99.79
2019-04-28T01:48:11.927Z,99.74
2019-04-28T01:49:11.898Z,99.17
2019-04-28T01:50:11.868Z,99.93
2019-04-28T01:51:12.032Z,99.74
2019-04-28T01:52:11.808Z,99.74
2019-04-28T01:53:11.982Z,99.84
2019-04-28T01:54:11.865Z,99.74
2019-04-28T01:55:11.849Z,99.74
2019-04-28T01:56:11.705Z,99.55
2019-04-28T01:57:11.886Z,99.55
2019-04-28T01:58:11.638Z,99.36
2019-04-28T01:59:11.776Z,99.55
2019-04-28T02:00:22.305Z,99.55
2019-04-28T02:01:11.736Z,99.08
2019-04-28T02:02:11.541Z,99.65
2019-04-28T02:03:11.718Z,99.84
2019-04-28T02:04:11.476Z,99.93
2019-04-28T02:05:11.457Z,99.99
2019-04-28T02:06:11.428Z,99.93
2019-04-28T02:07:11.537Z,99.74
2019-04-28T02:08:11.379Z,99.74
2019-04-28T02:09:11.537Z,99.99
2019-04-28T02:10:11.320Z,99.84
2019-04-28T02:11:11.467Z,99.36
2019-04-28T02:12:11.262Z,99.99
2019-04-28T02:13:11.469Z,99.84
2019-04-28T02:14:11.200Z,99.93
2019-04-28T02:15:11.397Z,99.55
2019-04-28T02:16:11.146Z,99.46
2019-04-28T02:17:11.299Z,99.74
2019-04-28T02:18:11.100Z,99.36
2019-04-28T02:19:11.218Z,99.27
2019-04-28T02:20:11.029Z,99.27
2019-04-28T02:21:11.012Z,98.88
2019-04-28T02:22:10.980Z,98.88
2019-04-28T02:23:11.136Z,99.27
2019-04-28T02:24:10.928Z,99.65
2019-04-28T02:25:11.203Z,99.55
2019-04-28T02:26:10.882Z,99.55
2019-04-28T02:27:11.074Z,99.46
2019-04-28T02:28:11.844Z,99.36
2019-04-28T02:29:10.868Z,99.27
2019-04-28T02:30:11.666Z,99.08
2019-04-28T02:31:11.451Z,99.65
2019-04-28T02:32:10.700Z,99.08
2019-04-28T02:33:11.194Z,99.46
2019-04-28T02:34:11.235Z,99.17
2019-04-28T02:35:10.952Z,99.65
2019-04-28T02:36:12.359Z,99.65
2019-04-28T02:37:11.260Z,99.46
2019-04-28T02:38:11.522Z,99.46
2019-04-28T02:39:10.742Z,99.65
2019-04-28T02:40:10.909Z,99.84
2019-04-28T02:41:11.178Z,99.84
2019-04-28T02:42:11.079Z,99.65
2019-04-28T02:43:11.396Z,99.93
2019-04-28T02:44:10.493Z,99.36
2019-04-28T02:45:11.728Z,99.99
2019-04-28T02:46:10.602Z,99.99
2019-04-28T02:47:11.159Z,99.99
2019-04-28T02:48:11.119Z,99.84
2019-04-28T02:49:10.400Z,99.36
2019-04-28T02:50:11.343Z,99.93
2019-04-28T02:51:11.022Z,99.84
2019-04-28T02:52:10.691Z,99.84
2019-04-28T02:53:10.994Z,99.46
2019-04-28T02:54:10.442Z,99.74
2019-04-28T02:55:11.323Z,99.84
2019-04-28T02:56:11.307Z,99.74
2019-04-28T02:57:10.746Z,99.74
2019-04-28T02:58:10.760Z,99.55
2019-04-28T02:59:10.996Z,99.74
2019-04-28T03:00:10.467Z,99.84
2019-04-28T03:01:21.393Z,99.55
2019-04-28T03:02:10.523Z,99.46
2019-04-28T03:03:11.023Z,99.55
2019-04-28T03:04:12.171Z,99.74
2019-04-28T03:05:11.596Z,99.84
2019-04-28T03:06:10.817Z,99.99
2019-04-28T03:07:11.569Z,99.93
2019-04-28T03:08:11.158Z,99.27
2019-04-28T03:09:10.609Z,99.46
2019-04-28T03:10:11.062Z,99.84
2019-04-28T03:11:10.708Z,99.99
2019-04-28T03:12:11.310Z,99.99
2019-04-28T03:13:12.799Z,99.99
2019-04-28T03:14:11.080Z,99.99
2019-04-28T03:15:10.355Z,99.99
2019-04-28T03:16:10.794Z,99.99
2019-04-28T03:17:10.966Z,99.99
2019-04-28T03:18:11.483Z,99.99
2019-04-28T03:19:10.954Z,99.99
2019-04-28T03:20:11.003Z,99.99
2019-04-28T03:21:11.442Z,99.99
2019-04-28T03:22:11.482Z,99.99
2019-04-28T03:23:12.253Z,99.99
2019-04-28T03:24:10.955Z,99.99
2019-04-28T03:25:10.957Z,99.99
2019-04-28T03:26:11.191Z,99.99
2019-04-28T03:27:10.814Z,99.99
2019-04-28T03:28:11.806Z,99.99
2019-04-28T03:29:10.837Z,99.99
2019-04-28T03:30:12.752Z,99.99
2019-04-28T03:31:36.882Z,99.99
2019-04-28T03:32:28.264Z,99.99
2019-04-28T03:33:13.310Z,99.99
2019-04-28T03:34:12.578Z,99.99
2019-04-28T03:35:12.766Z,99.99
2019-04-28T03:36:14.694Z,99.99
2019-04-28T03:37:11.296Z,99.99
2019-04-28T03:38:10.745Z,99.99
2019-04-28T03:39:11.019Z,99.99
2019-04-28T03:40:10.867Z,99.99
2019-04-28T03:41:11.199Z,99.99
2019-04-28T03:42:11.466Z,99.99
2019-04-28T03:43:10.438Z,99.99
2019-04-28T03:44:11.277Z,99.99
2019-04-28T03:45:11.271Z,99.99
2019-04-28T03:46:10.532Z,99.99
2019-04-28T03:47:10.625Z,99.99
2019-04-28T03:48:11.332Z,99.99
2019-04-28T03:49:10.811Z,99.99
2019-04-28T03:50:10.449Z,99.99
2019-04-28T03:51:10.795Z,99.99
2019-04-28T03:52:10.735Z,99.99
2019-04-28T03:53:11.009Z,99.99
2019-04-28T03:54:10.377Z,99.99
2019-04-28T03:55:08.398Z,99.99
2019-04-28T03:56:11.179Z,99.99
2019-04-28T03:57:11.115Z,99.99
2019-04-28T03:58:10.381Z,99.99
2019-04-28T03:59:10.371Z,99.99
2019-04-28T04:00:10.848Z,99.99
2019-04-28T04:01:10.766Z,99.99
2019-04-28T04:02:10.979Z,99.99
2019-04-28T04:03:10.671Z,99.99
2019-04-28T04:04:08.140Z,99.99
2019-04-28T04:05:10.899Z,99.99
2019-04-28T04:06:10.379Z,99.99
2019-04-28T04:07:08.077Z,99.99
2019-04-28T04:08:10.675Z,99.99
2019-04-28T04:09:08.088Z,99.99
2019-04-28T04:10:11.176Z,99.99
2019-04-28T04:11:10.633Z,99.99
2019-04-28T04:12:07.917Z,99.99
2019-04-28T04:13:10.748Z,99.99
2019-04-28T04:14:07.869Z,99.99
2019-04-28T04:15:07.927Z,99.99
2019-04-28T04:16:07.808Z,99.99
2019-04-28T04:17:07.839Z,99.99
2019-04-28T04:18:07.749Z,99.99
2019-04-28T04:19:10.438Z,99.99
2019-04-28T04:20:07.698Z,99.99
2019-04-28T04:21:07.779Z,99.99
2019-04-28T04:22:09.985Z,99.99
2019-04-28T04:23:07.677Z,99.99
2019-04-28T04:24:07.588Z,99.99
2019-04-28T04:25:10.173Z,99.99
2019-04-28T04:26:07.525Z,99.99
2019-04-28T04:27:07.607Z,99.99
2019-04-28T04:28:10.020Z,99.99
2019-04-28T04:29:07.438Z,99.99
2019-04-28T04:30:07.528Z,99.99
2019-04-28T04:31:10.117Z,99.99
2019-04-28T04:32:14.748Z,99.99
2019-04-28T04:33:07.337Z,99.99
2019-04-28T04:34:07.311Z,99.99
2019-04-28T04:35:07.285Z,99.99
2019-04-28T04:36:07.369Z,99.99
2019-04-28T04:37:07.221Z,99.99
2019-04-28T04:38:07.278Z,99.99
2019-04-28T04:39:07.160Z,99.99
2019-04-28T04:40:07.141Z,99.99
2019-04-28T04:41:07.198Z,99.99
2019-04-28T04:42:07.088Z,99.99
2019-04-28T04:43:07.120Z,99.99
2019-04-28T04:44:07.033Z,99.99
2019-04-28T04:45:07.003Z,99.99
2019-04-28T04:46:06.973Z,99.99
2019-04-28T04:47:07.031Z,99.99
2019-04-28T04:48:06.908Z,99.99
2019-04-28T04:49:06.950Z,99.99
2019-04-28T04:50:06.872Z,99.99
2019-04-28T04:51:06.858Z,99.99
2019-04-28T04:52:06.812Z,99.99
2019-04-28T04:53:06.874Z,99.99
2019-04-28T04:54:06.750Z,99.99
2019-04-28T04:55:06.788Z,99.99
2019-04-28T04:56:06.688Z,99.99
2019-04-28T04:57:06.700Z,99.99
2019-04-28T04:58:06.639Z,99.99
2019-04-28T04:59:06.708Z,99.99
2019-04-28T05:00:06.578Z,99.99
2019-04-28T05:01:06.578Z,99.99
2019-04-28T05:02:06.626Z,99.99
2019-04-28T05:03:06.491Z,99.99
2019-04-28T05:04:06.539Z,99.99
2019-04-28T05:05:06.436Z,99.99
2019-04-28T05:06:06.448Z,99.99
2019-04-28T05:07:06.378Z,99.99
2019-04-28T05:08:06.466Z,99.99
2019-04-28T05:09:06.327Z,99.99
2019-04-28T05:10:06.378Z,99.99
2019-04-28T05:11:06.270Z,99.99
2019-04-28T05:12:06.236Z,99.99
2019-04-28T05:13:06.219Z,99.99
2019-04-28T05:14:07.610Z,99.99
2019-04-28T05:15:06.158Z,99.99
2019-04-28T05:16:06.208Z,99.99
2019-04-28T05:17:06.221Z,99.99
2019-04-28T05:18:06.067Z,99.99
2019-04-28T05:19:06.135Z,99.99
2019-04-28T05:20:06.017Z,99.99
2019-04-28T05:21:06.046Z,99.99
2019-04-28T05:22:05.958Z,99.99
2019-04-28T05:23:05.969Z,99.99
2019-04-28T05:24:09.262Z,99.99
2019-04-28T05:25:05.877Z,99.99
2019-04-28T05:26:08.012Z,99.99
2019-04-28T05:27:05.825Z,99.99
2019-04-28T05:28:05.788Z,99.99
2019-04-28T05:29:05.787Z,99.99
2019-04-28T05:30:05.756Z,99.99
2019-04-28T05:31:05.813Z,99.99
2019-04-28T05:32:05.678Z,99.99
2019-04-28T05:33:05.661Z,99.99
2019-04-28T05:34:08.063Z,99.99
2019-04-28T05:35:05.627Z,99.99
2019-04-28T05:36:05.569Z,99.99
2019-04-28T05:37:05.655Z,99.99
2019-04-28T05:38:05.511Z,99.99
2019-04-28T05:39:05.564Z,99.99
2019-04-28T05:40:05.458Z,99.99
2019-04-28T05:41:05.467Z,99.99
2019-04-28T05:42:05.408Z,99.99
2019-04-28T05:43:05.481Z,99.99
2019-04-28T05:44:05.347Z,99.99
2019-04-28T05:45:05.387Z,99.99
2019-04-28T05:46:05.298Z,99.99
2019-04-28T05:47:05.307Z,99.99
2019-04-28T05:48:05.248Z,99.99
2019-04-28T05:49:05.218Z,99.99
2019-04-28T05:50:05.225Z,99.99
2019-04-28T05:51:05.146Z,99.99
2019-04-28T05:52:05.239Z,99.99
2019-04-28T05:53:05.087Z,99.99
2019-04-28T05:54:05.078Z,99.99
2019-04-28T05:55:05.049Z,99.99
2019-04-28T05:56:05.051Z,99.99
2019-04-28T05:57:04.988Z,99.99
2019-04-28T05:58:04.966Z,99.99
2019-04-28T05:59:04.927Z,99.99
2019-04-28T06:00:04.898Z,99.99
2019-04-28T06:01:04.997Z,99.99
2019-04-28T06:02:04.850Z,99.99
2019-04-28T06:03:04.920Z,99.99
2019-04-28T06:04:04.790Z,99.99
2019-04-28T06:05:04.768Z,99.99
2019-04-28T06:06:04.827Z,99.99
2019-04-28T06:07:04.708Z,99.99
2019-04-28T06:08:04.750Z,99.99
2019-04-28T06:09:04.658Z,99.99
2019-04-28T06:10:04.631Z,99.99
2019-04-28T06:11:04.602Z,99.99
2019-04-28T06:12:04.662Z,99.99
2019-04-28T06:13:04.539Z,99.99
2019-04-28T06:14:04.579Z,99.99
2019-04-28T06:15:04.478Z,99.99
2019-04-28T06:16:04.453Z,99.99
2019-04-28T06:17:04.487Z,99.99
2019-04-28T06:18:04.432Z,99.99
2019-04-28T06:19:04.413Z,99.99
2019-04-28T06:20:04.352Z,99.99
2019-04-28T06:21:04.317Z,99.99
2019-04-28T06:22:04.290Z,99.99
2019-04-28T06:23:04.327Z,99.99
2019-04-28T06:24:04.227Z,99.99
2019-04-28T06:25:04.362Z,99.99
2019-04-28T06:26:04.199Z,99.99
2019-04-28T06:27:04.257Z,99.99
2019-04-28T06:28:04.118Z,99.99
2019-04-28T06:29:04.167Z,99.99
2019-04-28T06:30:04.087Z,99.99
2019-04-28T06:31:04.089Z,99.99
2019-04-28T06:32:04.008Z,99.99
2019-04-28T06:33:07.929Z,99.99
2019-04-28T06:34:03.949Z,99.99
2019-04-28T06:35:04.007Z,99.99
2019-04-28T06:36:03.899Z,99.99
2019-04-28T06:37:03.867Z,99.99
2019-04-28T06:38:03.860Z,99.99
2019-04-28T06:39:03.953Z,99.99
2019-04-28T06:40:03.822Z,99.99
2019-04-28T06:41:03.871Z,99.99
2019-04-28T06:42:03.748Z,99.99
2019-04-28T06:43:03.728Z,99.99
2019-04-28T06:44:03.768Z,99.99
2019-04-28T06:45:03.658Z,99.99
2019-04-28T06:46:03.687Z,99.99
2019-04-28T06:47:03.586Z,99.99
2019-04-28T06:48:03.577Z,99.99
2019-04-28T06:49:03.609Z,99.99
2019-04-28T06:50:03.511Z,99.99
2019-04-28T06:51:03.609Z,99.99
2019-04-28T06:52:03.480Z,99.99
2019-04-28T06:53:03.444Z,99.99
2019-04-28T06:54:03.409Z,99.99
2019-04-28T06:55:03.456Z,99.99
2019-04-28T06:56:03.366Z,99.99
2019-04-28T06:57:03.360Z,99.13
2019-04-28T06:58:03.317Z,99.41
2019-04-28T06:59:03.399Z,99.51
2019-04-28T07:00:03.251Z,99.37
2019-04-28T07:01:03.273Z,98.99
2019-04-28T07:02:03.197Z,99.27
2019-04-28T07:03:03.288Z,99.46
2019-04-28T07:04:03.128Z,99.27
2019-04-28T07:05:03.199Z,98.99
2019-04-28T07:06:03.067Z,98.03
2019-04-28T07:07:03.135Z,98.22
2019-04-28T07:08:03.028Z,98.41
2019-04-28T07:09:03.026Z,96.89
2019-04-28T07:10:02.957Z,97.36
2019-04-28T07:11:03.027Z,97.46
2019-04-28T07:12:02.932Z,98.13
2019-04-28T07:13:02.948Z,97.84
2019-04-28T07:14:02.876Z,97.94
2019-04-28T07:15:02.971Z,96.80
2019-04-28T07:16:02.821Z,95.56
2019-04-28T07:17:02.869Z,97.08
2019-04-28T07:18:02.780Z,95.94
2019-04-28T07:19:02.776Z,95.75
2019-04-28T07:20:02.689Z,96.12
2019-04-28T07:21:02.709Z,95.51
2019-04-28T07:22:02.638Z,96.65
2019-04-28T07:23:02.706Z,94.84
2019-04-28T07:24:02.598Z,94.65
2019-04-28T07:25:02.587Z,94.65
2019-04-28T07:26:02.536Z,94.65
2019-04-28T07:27:02.529Z,94.56
2019-04-28T07:28:02.480Z,94.56
2019-04-28T07:29:02.547Z,93.70
2019-04-28T07:30:02.426Z,93.79
2019-04-28T07:31:02.459Z,94.17
2019-04-28T07:32:02.378Z,93.51
2019-04-28T07:33:02.373Z,94.27
2019-04-28T07:34:03.074Z,94.27
2019-04-28T07:35:02.403Z,94.56
2019-04-28T07:36:02.259Z,93.79
2019-04-28T07:37:02.324Z,93.32
2019-04-28T07:38:02.262Z,93.32
2019-04-28T07:39:02.228Z,94.65
2019-04-28T07:40:02.172Z,93.98
2019-04-28T07:41:02.128Z,94.17
2019-04-28T07:42:02.098Z,93.51
2019-04-28T07:43:02.137Z,94.46
2019-04-28T07:44:02.048Z,93.12
2019-04-28T07:45:02.050Z,92.46
2019-04-28T07:46:02.059Z,92.17
2019-04-28T07:47:01.981Z,92.17
2019-04-28T07:48:01.969Z,92.65
2019-04-28T07:49:01.930Z,93.98
2019-04-28T07:50:01.994Z,92.17
2019-04-28T07:51:01.869Z,92.08
2019-04-28T07:52:01.888Z,92.46
2019-04-28T07:53:01.818Z,92.17
2019-04-28T07:54:04.790Z,92.93
2019-04-28T07:55:01.769Z,92.55
2019-04-28T07:56:01.829Z,92.32
2019-04-28T07:57:01.718Z,92.32
2019-04-28T07:58:01.682Z,92.41
2019-04-28T07:59:01.768Z,90.50
2019-04-28T08:00:01.627Z,90.69
2019-04-28T08:01:01.649Z,90.59
2019-04-28T08:02:01.670Z,90.31
2019-04-28T08:03:01.565Z,89.74
2019-04-28T08:04:01.568Z,90.12
2019-04-28T08:05:01.500Z,90.59
2019-04-28T08:06:01.577Z,89.17
2019-04-28T08:07:01.447Z,90.03
2019-04-28T08:08:01.490Z,90.98
2019-04-28T08:09:02.514Z,89.93
2019-04-28T08:10:01.415Z,89.64
2019-04-28T08:11:01.337Z,90.22
2019-04-28T08:12:01.428Z,90.59
2019-04-28T08:13:01.288Z,90.50
2019-04-28T08:14:01.329Z,89.78
2019-04-28T08:15:01.235Z,90.55
2019-04-28T08:16:01.242Z,89.59
2019-04-28T08:17:01.188Z,87.87
2019-04-28T08:18:01.155Z,87.93
2019-04-28T08:19:01.155Z,87.45
2019-04-28T08:20:01.110Z,88.88
2019-04-28T08:21:01.178Z,88.78
2019-04-28T08:22:01.069Z,87.64
2019-04-28T08:23:01.041Z,87.35
2019-04-28T08:24:01.008Z,88.12
2019-04-28T08:25:01.007Z,87.26
2019-04-28T08:26:00.979Z,87.97
2019-04-28T08:27:01.025Z,87.45
2019-04-28T08:28:00.886Z,87.78
2019-04-28T08:29:00.879Z,87.64
2019-04-28T08:30:00.966Z,88.35
2019-04-28T08:31:00.830Z,87.59
2019-04-28T08:32:00.847Z,87.68
2019-04-28T08:33:00.789Z,86.98
2019-04-28T08:34:02.746Z,87.87
2019-04-28T08:35:00.717Z,88.64
2019-04-28T08:36:00.767Z,88.83
2019-04-28T08:37:00.656Z,87.97
2019-04-28T08:38:00.688Z,87.49
2019-04-28T08:39:00.699Z,88.07
2019-04-28T08:40:00.591Z,87.11
2019-04-28T08:41:00.600Z,87.30
2019-04-28T08:42:00.537Z,88.07
2019-04-28T08:43:00.617Z,87.11
2019-04-28T08:44:00.487Z,86.35
2019-04-28T08:45:00.525Z,86.06
2019-04-28T08:46:00.428Z,86.35
2019-04-28T08:47:00.439Z,86.02
2019-04-28T08:48:00.387Z,86.88
2019-04-28T08:49:00.449Z,87.97
2019-04-28T08:50:00.327Z,88.07
2019-04-28T08:51:00.365Z,87.59
2019-04-28T08:52:00.285Z,87.59
2019-04-28T08:53:00.282Z,87.97
2019-04-28T08:54:00.239Z,87.68
2019-04-28T08:55:00.207Z,86.63
2019-04-28T08:56:00.200Z,86.54
2019-04-28T08:57:00.207Z,85.54
2019-04-28T08:58:00.117Z,85.64
2019-04-28T08:59:00.121Z,85.54
2019-04-28T09:00:00.121Z,87.64
2019-04-28T09:01:00.050Z,87.64
2019-04-28T09:02:00.039Z,88.21
2019-04-28T09:02:59.988Z,88.12
2019-04-28T09:04:00.057Z,87.54
2019-04-28T09:04:59.944Z,88.16
2019-04-28T09:06:01.518Z,88.16
2019-04-28T09:06:59.967Z,88.26
2019-04-28T09:07:59.869Z,87.78
2019-04-28T09:08:59.877Z,86.92
2019-04-28T09:09:59.810Z,86.92
2019-04-28T09:10:59.789Z,87.68
2019-04-28T09:11:59.803Z,87.68
2019-04-28T09:12:59.743Z,86.68
2019-04-28T09:13:59.837Z,86.77
2019-04-28T09:14:59.686Z,85.91
2019-04-28T09:15:59.704Z,84.43
2019-04-28T09:16:59.637Z,84.33
2019-04-28T09:17:59.691Z,84.33
2019-04-28T09:18:59.588Z,83.00
2019-04-28T09:19:59.646Z,81.37
2019-04-28T09:20:59.536Z,80.41
2019-04-28T09:21:59.517Z,81.95
2019-04-28T09:22:59.565Z,80.85
2019-04-28T09:23:59.466Z,81.24
2019-04-28T09:24:59.475Z,83.28
2019-04-28T09:25:59.418Z,82.46
2019-04-28T09:26:59.411Z,82.46
2019-04-28T09:27:59.356Z,81.84
2019-04-28T09:28:59.405Z,80.46
2019-04-28T09:29:59.307Z,79.12
2019-04-28T09:30:59.317Z,80.80
2019-04-28T09:31:59.327Z,80.70
2019-04-28T09:32:59.236Z,80.90
2019-04-28T09:33:59.241Z,80.57
2019-04-28T09:34:59.193Z,81.71
2019-04-28T09:35:59.247Z,82.57
2019-04-28T09:36:59.137Z,82.09
2019-04-28T09:37:59.155Z,83.01
2019-04-28T09:38:59.076Z,84.16
2019-04-28T09:39:59.178Z,84.63
2019-04-28T09:40:59.037Z,84.88
2019-04-28T09:41:59.086Z,86.49
2019-04-28T09:42:58.988Z,87.64
2019-04-28T09:43:58.995Z,87.93
2019-04-28T09:45:01.240Z,88.88
2019-04-28T09:45:58.906Z,88.12
2019-04-28T09:46:59.032Z,88.84
2019-04-28T09:47:58.863Z,89.31
2019-04-28T09:48:58.928Z,90.74
2019-04-28T09:49:58.796Z,90.84
2019-04-28T09:50:58.948Z,90.55
2019-04-28T09:51:58.758Z,90.17
2019-04-28T09:52:58.726Z,89.60
2019-04-28T09:53:58.735Z,90.26
2019-04-28T09:54:58.773Z,90.59
2019-04-28T09:55:58.687Z,91.27
2019-04-28T09:56:58.794Z,91.55
2019-04-28T09:57:58.678Z,90.12
2019-04-28T09:58:58.582Z,91.60
2019-04-28T09:59:58.754Z,88.54
2019-04-28T10:00:58.527Z,88.26
2019-04-28T10:01:58.617Z,87.68
2019-04-28T10:02:58.485Z,87.82
2019-04-28T10:03:58.448Z,88.49
2019-04-28T10:04:58.560Z,87.01
2019-04-28T10:05:58.424Z,85.86
2019-04-28T10:06:58.450Z,84.91
2019-04-28T10:07:58.350Z,84.85
2019-04-28T10:08:58.356Z,84.56
2019-04-28T10:09:58.309Z,81.79
2019-04-28T10:10:58.369Z,81.41
2019-04-28T10:11:58.265Z,81.70
2019-04-28T10:12:58.393Z,81.18
2019-04-28T10:13:58.287Z,82.04
2019-04-28T10:14:58.190Z,81.66
2019-04-28T10:15:58.309Z,81.33
2019-04-28T10:16:58.152Z,82.29
2019-04-28T10:17:58.439Z,83.34
2019-04-28T10:18:58.245Z,83.05
2019-04-28T10:19:58.046Z,82.57
2019-04-28T10:20:58.135Z,82.29
2019-04-28T10:21:58.008Z,83.72
2019-04-28T10:22:58.149Z,82.76
2019-04-28T10:23:57.958Z,83.81
2019-04-28T10:24:58.062Z,82.76
2019-04-28T10:25:57.898Z,82.06
2019-04-28T10:26:58.078Z,83.11
2019-04-28T10:27:57.858Z,84.72
2019-04-28T10:28:57.986Z,84.44
2019-04-28T10:29:57.797Z,82.43
2019-04-28T10:30:57.799Z,83.29
2019-04-28T10:31:57.760Z,84.34
2019-04-28T10:32:57.813Z,84.34
2019-04-28T10:33:57.697Z,84.34
2019-04-28T10:34:57.678Z,84.92
2019-04-28T10:35:57.841Z,85.68
2019-04-28T10:36:57.623Z,85.49
2019-04-28T10:37:57.736Z,86.16
2019-04-28T10:38:57.580Z,86.44
2019-04-28T10:39:57.551Z,86.35
2019-04-28T10:40:57.524Z,85.68
2019-04-28T10:41:57.667Z,85.30
2019-04-28T10:42:57.482Z,85.77
2019-04-28T10:43:57.588Z,86.25
2019-04-28T10:44:57.418Z,86.54
2019-04-28T10:45:57.599Z,86.44
2019-04-28T10:46:57.379Z,86.44
2019-04-28T10:47:57.505Z,86.73
2019-04-28T10:48:57.320Z,87.11
2019-04-28T10:49:57.419Z,87.74
2019-04-28T10:50:57.275Z,88.35
2019-04-28T10:51:59.591Z,87.83
2019-04-28T10:52:57.217Z,88.50
2019-04-28T10:53:57.246Z,89.36
2019-04-28T10:54:57.158Z,89.59
2019-04-28T10:55:57.138Z,89.50
2019-04-28T10:56:57.116Z,89.88
2019-04-28T10:57:57.200Z,88.92
2019-04-28T10:58:57.060Z,89.31
2019-04-28T10:59:57.086Z,89.12
2019-04-28T11:00:57.016Z,89.02
2019-04-28T11:01:56.994Z,88.92
2019-04-28T11:02:56.956Z,89.21
2019-04-28T11:03:57.013Z,87.97
2019-04-28T11:05:07.839Z,87.78
2019-04-28T11:05:56.934Z,86.92
2019-04-28T11:06:56.866Z,86.25
2019-04-28T11:07:56.836Z,86.96
2019-04-28T11:08:56.837Z,86.10
2019-04-28T11:09:56.792Z,84.82
2019-04-28T11:10:56.856Z,85.82
2019-04-28T11:11:56.741Z,85.72
2019-04-28T11:12:56.728Z,86.96
2019-04-28T11:13:56.776Z,85.63
2019-04-28T11:14:56.658Z,84.20
2019-04-28T11:15:56.686Z,85.05
2019-04-28T11:16:56.614Z,85.63
2019-04-28T11:17:56.586Z,84.10
2019-04-28T11:18:56.568Z,83.72
2019-04-28T11:19:56.607Z,83.05
2019-04-28T11:20:56.510Z,84.39
2019-04-28T11:21:56.625Z,83.62
2019-04-28T11:22:56.459Z,82.90
2019-04-28T11:23:56.437Z,82.61
2019-04-28T11:24:56.555Z,82.14
2019-04-28T11:25:56.393Z,81.76
2019-04-28T11:26:56.456Z,82.52
2019-04-28T11:27:56.340Z,81.47
2019-04-28T11:28:56.306Z,80.99
2019-04-28T11:29:56.290Z,80.99
2019-04-28T11:30:56.271Z,81.85
2019-04-28T11:31:56.235Z,82.52
2019-04-28T11:32:56.227Z,81.76
2019-04-28T11:33:56.197Z,81.76
2019-04-28T11:34:56.162Z,80.80
2019-04-28T11:35:56.218Z,80.84
2019-04-28T11:36:56.116Z,80.07
2019-04-28T11:37:56.130Z,78.79
2019-04-28T11:38:56.068Z,78.79
2019-04-28T11:39:56.036Z,78.99
2019-04-28T11:40:56.046Z,78.99
2019-04-28T11:41:55.986Z,77.23
2019-04-28T11:42:56.065Z,78.28
2019-04-28T11:43:55.951Z,79.08
2019-04-28T11:44:55.915Z,79.56
2019-04-28T11:45:55.914Z,77.94
2019-04-28T11:46:55.985Z,77.36
2019-04-28T11:47:55.837Z,77.65
2019-04-28T11:48:55.897Z,77.55
2019-04-28T11:49:55.803Z,77.94
2019-04-28T11:50:55.894Z,78.03
2019-04-28T11:51:55.817Z,78.79
2019-04-28T11:52:55.868Z,77.26
2019-04-28T11:53:55.825Z,78.41
2019-04-28T11:54:55.685Z,79.02
2019-04-28T11:55:55.638Z,78.07
2019-04-28T11:56:55.645Z,77.59
2019-04-28T11:57:55.597Z,78.16
2019-04-28T11:58:55.671Z,77.50
2019-04-28T11:59:55.550Z,77.53
2019-04-28T12:00:55.679Z,77.15
2019-04-28T12:01:55.508Z,76.00
2019-04-28T12:02:55.592Z,76.86
2019-04-28T12:03:55.453Z,76.00
2019-04-28T12:04:55.595Z,76.20
2019-04-28T12:05:55.396Z,75.24
2019-04-28T12:06:55.376Z,74.76
2019-04-28T12:07:55.349Z,77.19
2019-04-28T12:08:55.428Z,75.95
2019-04-28T12:10:04.802Z,74.32
2019-04-28T12:10:55.288Z,72.79
2019-04-28T12:11:55.271Z,73.36
2019-04-28T12:12:55.249Z,73.79
2019-04-28T12:13:55.359Z,73.97
2019-04-28T12:14:55.185Z,71.42
2019-04-28T12:15:55.267Z,71.91
2019-04-28T12:16:55.136Z,71.42
2019-04-28T12:17:55.117Z,71.52
2019-04-28T12:18:55.190Z,72.58
2019-04-28T12:19:55.075Z,73.05
2019-04-28T12:20:55.198Z,73.63
2019-04-28T12:21:55.027Z,72.86
2019-04-28T12:22:54.999Z,71.30
2019-04-28T12:23:55.116Z,72.16
2019-04-28T12:24:54.955Z,72.31
2019-04-28T12:25:55.049Z,72.60
2019-04-28T12:26:54.908Z,73.94
2019-04-28T12:27:54.886Z,73.43
2019-04-28T12:28:54.860Z,74.66
2019-04-28T12:29:54.957Z,75.91
2019-04-28T12:30:54.825Z,75.59
2019-04-28T12:31:54.966Z,76.82
2019-04-28T12:32:54.820Z,77.36
2019-04-28T12:33:54.731Z,78.89
2019-04-28T12:34:54.888Z,79.98
2019-04-28T12:35:54.704Z,80.17
2019-04-28T12:36:54.813Z,80.70
2019-04-28T12:37:54.658Z,80.80
2019-04-28T12:38:54.629Z,80.99
2019-04-28T12:39:54.596Z,81.60
2019-04-28T12:40:54.732Z,81.76
2019-04-28T12:41:54.550Z,81.47
2019-04-28T12:42:54.640Z,81.76
2019-04-28T12:43:54.658Z,81.47
2019-04-28T12:44:54.495Z,81.13
2019-04-28T12:45:54.656Z,81.79
2019-04-28T12:46:54.436Z,82.12
2019-04-28T12:47:54.578Z,81.16
2019-04-28T12:48:54.380Z,79.64
2019-04-28T12:49:54.367Z,79.83
2019-04-28T12:50:54.499Z,80.35
2019-04-28T12:51:54.307Z,79.96